Time,TemperatureF,DewpointF,PressureIn,WindDirection,WindDirectionDegrees,WindSpeedMPH,WindSpeedGustMPH,Humidity,HourlyPrecipIn,Conditions,Clouds,dailyrainin,SoftwareType,DateUTC
2013-05-21 00:03:00,-14.4,-15.2,28.44,ENE,68,0.0,0.0,96,0.00,,---,0.00,VWS V14.01,2013-05-21 05:03:00,
2013-05-21 00:08:00,-13.5,-14.4,28.44,ENE,68,0.0,0.0,96,0.00,,---,0.00,VWS V14.01,2013-05-21 05:08:00,
2013-05-21 00:14:00,-13.0,-13.8,28.44,ENE,68,0.0,0.0,96,0.00,,---,0.00,VWS V14.01,2013-05-21 05:14:00,
2013-05-21 00:19:00,-11.0,-11.8,28.44,ENE,68,0.0,0.0,96,0.00,,---,0.00,VWS V14.01,2013-05-21 05:19:00,
2013-05-21 00:24:00,-9.9,-10.8,28.44,ENE,68,0.0,0.0,96,0.00,,---,0.00,VWS V14.01,2013-05-21 05:24:00,
2013-05-21 00:29:00,-11.2,-12.0,28.44,ENE,68,0.0,0.0,96,0.00,,---,0.00,VWS V14.01,2013-05-21 05:29:00,
2013-05-21 00:34:00,-13.2,-14.0,28.44,NE,45,0.0,0.0,96,0.00,,---,0.00,VWS V14.01,2013-05-21 05:34:00,
2013-05-21 00:39:00,-13.2,-14.0,28.44,ENE,68,0.0,0.0,96,0.00,,---,0.00,VWS V14.01,2013-05-21 05:39:00,
2013-05-21 00:44:00,-13.7,-14.5,28.44,ENE,68,0.0,0.0,96,0.00,,---,0.00,VWS V14.01,2013-05-21 05:44:00,
2013-05-21 00:49:00,-12.3,-13.1,28.44,NNE,22,0.0,0.0,96,0.00,,---,0.00,VWS V14.01,2013-05-21 05:49:00,
2013-05-21 00:54:00,-12.8,-13.6,28.44,ENE,68,0.0,0.0,96,0.00,,---,0.00,VWS V14.01,2013-05-21 05:54:00,
2013-05-21 00:59:00,-11.2,-12.0,28.44,ENE,68,0.0,0.0,96,0.00,,---,0.00,VWS V14.01,2013-05-21 05:59:00,
2013-05-21 01:04:00,-5.1,-5.9,28.44,ENE,68,0.0,0.0,96,0.00,,---,0.00,VWS V14.01,2013-05-21 06:04:00,
2013-05-21 01:09:00,-3.5,-4.3,28.44,ENE,68,0.0,0.0,96,0.00,,---,0.00,VWS V14.01,2013-05-21 06:09:00,
2013-05-21 01:14:00,-4.5,-5.4,28.44,ENE,68,0.0,0.0,96,0.00,,---,0.00,VWS V14.01,2013-05-21 06:14:00,
2013-05-21 01:19:00,-5.3,-6.1,28.44,ENE,68,0.0,0.0,96,0.00,,---,0.00,VWS V14.01,2013-05-21 06:19:00,
2013-05-21 01:24:00,-9.6,-10.4,28.44,ENE,68,0.0,0.0,96,0.00,,---,0.00,VWS V14.01,2013-05-21 06:24:00,
2013-05-21 01:29:00,-6.3,-7.2,28.44,ENE,68,0.0,0.0,96,0.00,,---,0.00,VWS V14.01,2013-05-21 06:29:00,
2013-05-21 01:34:00,-8.1,-9.0,28.44,ENE,68,0.0,0.0,96,0.00,,---,0.00,VWS V14.01,2013-05-21 06:34:00,
2013-05-21 01:39:00,-8.0,-8.8,28.44,ENE,68,0.0,0.0,96,0.00,,---,0.00,VWS V14.01,2013-05-21 06:39:00,
2013-05-21 01:44:00,-6.7,-7.5,28.44,ENE,68,0.0,0.0,96,0.00,,---,0.00,VWS V14.01,2013-05-21 06:44:00,
2013-05-21 01:49:00,-5.1,-5.9,28.44,ENE,68,0.0,0.0,96,0.00,,---,0.00,VWS V14.01,2013-05-21 06:49:00,
2013-05-21 01:55:00,-4.7,-5.6,28.44,ENE,68,0.0,0.0,96,0.00,,---,0.00,VWS V14.01,2013-05-21 06:55:00,
2013-05-21 02:00:00,-1.3,-2.2,28.44,ENE,68,0.0,0.0,96,0.00,,---,0.00,VWS V14.01,2013-05-21 07:00:00,
2013-05-21 02:05:00,0.3,-0.6,28.44,ENE,68,0.0,0.0,96,0.00,,---,0.00,VWS V14.01,2013-05-21 07:05:00,
2013-05-21 02:10:00,1.0,0.2,28.44,ENE,68,0.0,0.0,96,0.00,,---,0.00,VWS V14.01,2013-05-21 07:10:00,
2013-05-21 02:15:00,0.0,-0.9,28.44,ENE,68,0.0,0.0,96,0.00,,---,0.00,VWS V14.01,2013-05-21 07:15:00,
2013-05-21 02:20:00,0.0,-0.9,28.44,ENE,68,0.0,1.6,96,0.00,,---,0.00,VWS V14.01,2013-05-21 07:20:00,
2013-05-21 02:25:00,0.3,-0.6,28.44,ENE,68,0.0,0.0,96,0.00,,---,0.00,VWS V14.01,2013-05-21 07:25:00,
2013-05-21 02:30:00,1.2,0.3,28.44,ENE,68,0.0,0.0,96,0.00,,---,0.00,VWS V14.01,2013-05-21 07:30:00,
2013-05-21 02:35:00,3.0,2.1,28.44,ENE,68,0.0,0.0,96,0.00,,---,0.00,VWS V14.01,2013-05-21 07:35:00,
2013-05-21 02:40:00,1.0,0.2,28.44,East,90,0.0,0.0,96,0.00,,---,0.00,VWS V14.01,2013-05-21 07:40:00,
2013-05-21 02:45:00,1.2,0.3,28.44,NE,45,0.0,0.0,96,0.00,,---,0.00,VWS V14.01,2013-05-21 07:45:00,
2013-05-21 02:50:00,3.9,3.0,28.44,ENE,68,0.0,0.0,96,0.00,,---,0.00,VWS V14.01,2013-05-21 07:50:00,
2013-05-21 02:55:00,6.8,5.9,28.44,ENE,68,3.1,3.1,96,0.00,,---,0.00,VWS V14.01,2013-05-21 07:55:00,
2013-05-21 03:00:00,6.3,5.4,28.44,ENE,68,2.5,2.9,96,0.00,,---,0.00,VWS V14.01,2013-05-21 08:00:00,
2013-05-21 03:05:00,5.0,4.1,28.44,ENE,68,2.0,2.5,96,0.00,,---,0.00,VWS V14.01,2013-05-21 08:05:00,
2013-05-21 03:10:00,5.5,4.7,28.44,NE,45,2.5,2.5,96,0.00,,---,0.00,VWS V14.01,2013-05-21 08:10:00,
2013-05-21 03:15:00,6.3,5.4,28.44,ENE,68,1.3,2.5,96,0.00,,---,0.00,VWS V14.01,2013-05-21 08:15:00,
2013-05-21 03:20:00,5.7,4.8,28.44,ENE,68,2.9,2.9,96,0.00,,---,0.00,VWS V14.01,2013-05-21 08:20:00,
2013-05-21 03:25:00,5.9,5.0,28.44,ENE,68,0.0,2.0,96,0.00,,---,0.00,VWS V14.01,2013-05-21 08:25:00,
2013-05-21 03:30:00,5.9,5.0,28.44,ESE,112,0.0,0.0,96,0.00,,---,0.00,VWS V14.01,2013-05-21 08:30:00,
2013-05-21 03:35:00,6.3,5.4,28.44,ENE,68,0.0,0.0,96,0.00,,---,0.00,VWS V14.01,2013-05-21 08:35:00,
2013-05-21 03:40:00,7.7,6.8,28.44,ENE,68,1.6,3.6,96,0.00,,---,0.00,VWS V14.01,2013-05-21 08:40:00,
2013-05-21 03:45:00,7.9,7.0,28.44,ENE,68,3.1,3.4,96,0.00,,---,0.00,VWS V14.01,2013-05-21 08:45:00,
2013-05-21 03:50:00,7.2,6.3,28.44,ENE,68,0.0,2.5,96,0.00,,---,0.00,VWS V14.01,2013-05-21 08:50:00,
2013-05-21 03:55:00,6.3,5.4,28.44,East,90,0.0,2.0,96,0.00,,---,0.00,VWS V14.01,2013-05-21 08:55:00,
2013-05-21 04:00:00,6.6,5.7,28.44,ENE,68,1.6,2.7,96,0.00,,---,0.00,VWS V14.01,2013-05-21 09:00:00,
2013-05-21 04:05:00,8.1,7.2,28.44,ENE,68,2.9,3.6,96,0.00,,---,0.00,VWS V14.01,2013-05-21 09:05:00,
2013-05-21 04:10:00,7.5,6.6,28.44,ENE,68,2.2,2.2,96,0.00,,---,0.00,VWS V14.01,2013-05-21 09:10:00,
2013-05-21 04:16:00,7.7,6.8,28.44,ENE,68,3.1,3.1,96,0.00,,---,0.00,VWS V14.01,2013-05-21 09:16:00,
2013-05-21 04:21:00,7.7,6.8,28.44,ENE,68,2.0,2.0,96,0.00,,---,0.00,VWS V14.01,2013-05-21 09:21:00,
2013-05-21 04:26:00,7.0,6.1,28.44,East,90,0.0,0.0,96,0.00,,---,0.00,VWS V14.01,2013-05-21 09:26:00,
2013-05-21 04:31:00,7.5,6.6,28.44,ENE,68,2.5,2.5,96,0.00,,---,0.00,VWS V14.01,2013-05-21 09:31:00,
2013-05-21 04:36:00,8.1,7.2,28.44,ENE,68,0.0,0.0,96,0.00,,---,0.00,VWS V14.01,2013-05-21 09:36:00,
2013-05-21 04:41:00,8.4,7.5,28.44,ENE,68,0.0,0.0,96,0.00,,---,0.00,VWS V14.01,2013-05-21 09:41:00,
2013-05-21 04:46:00,8.8,7.9,28.44,ENE,68,0.0,0.0,96,0.00,,---,0.00,VWS V14.01,2013-05-21 09:46:00,
2013-05-21 04:51:00,9.7,8.8,28.44,ENE,68,0.0,0.0,96,0.00,,---,0.00,VWS V14.01,2013-05-21 09:51:00,
2013-05-21 04:56:00,10.2,9.3,28.44,ENE,68,2.0,2.5,96,0.00,,---,0.00,VWS V14.01,2013-05-21 09:56:00,
2013-05-21 05:01:00,10.2,9.3,28.44,ENE,68,0.0,0.0,96,0.00,,---,0.00,VWS V14.01,2013-05-21 10:01:00,
2013-05-21 05:06:00,10.4,9.5,28.44,East,90,0.0,0.0,96,0.00,,---,0.00,VWS V14.01,2013-05-21 10:06:00,
2013-05-21 05:11:00,10.4,9.5,28.44,ENE,68,0.0,0.0,96,0.00,,---,0.00,VWS V14.01,2013-05-21 10:11:00,
2013-05-21 05:16:00,10.2,9.3,28.44,ENE,68,0.0,0.0,96,0.00,,---,0.00,VWS V14.01,2013-05-21 10:16:00,
2013-05-21 05:21:00,10.9,10.0,28.44,ENE,68,0.0,0.0,96,0.00,,---,0.00,VWS V14.01,2013-05-21 10:21:00,
2013-05-21 05:26:00,10.9,10.0,28.44,ENE,68,0.0,0.0,96,0.00,,---,0.00,VWS V14.01,2013-05-21 10:26:00,
2013-05-21 05:31:00,10.6,9.7,28.44,ENE,68,0.0,0.0,96,0.00,,---,0.00,VWS V14.01,2013-05-21 10:31:00,
2013-05-21 05:36:00,10.4,9.5,28.44,ENE,68,0.0,0.0,96,0.00,,---,0.00,VWS V14.01,2013-05-21 10:36:00,
2013-05-21 05:41:00,10.4,9.5,28.44,ENE,68,0.0,0.0,96,0.00,,---,0.00,VWS V14.01,2013-05-21 10:41:00,
2013-05-21 05:46:00,10.2,9.3,28.44,East,90,0.0,0.0,96,0.00,,---,0.00,VWS V14.01,2013-05-21 10:46:00,
2013-05-21 05:51:00,9.9,8.9,28.44,ENE,68,0.0,0.0,96,0.00,,---,0.00,VWS V14.01,2013-05-21 10:51:00,
2013-05-21 05:57:00,9.7,8.8,28.44,ENE,68,0.0,0.0,96,0.00,,---,0.00,VWS V14.01,2013-05-21 10:57:00,
2013-05-21 06:02:00,9.5,8.6,28.44,ENE,68,0.0,0.0,96,0.00,,---,0.00,VWS V14.01,2013-05-21 11:02:00,
2013-05-21 06:07:00,9.3,8.4,28.44,ENE,68,0.0,0.0,96,0.00,,---,0.00,VWS V14.01,2013-05-21 11:07:00,
2013-05-21 06:12:00,9.1,8.2,28.44,ENE,68,0.0,0.0,96,0.00,,---,0.00,VWS V14.01,2013-05-21 11:12:00,
2013-05-21 06:17:00,9.0,8.1,28.44,ENE,68,0.0,0.0,96,0.00,,---,0.00,VWS V14.01,2013-05-21 11:17:00,
2013-05-21 06:22:00,8.6,7.7,28.44,ENE,68,0.0,0.0,96,0.00,,---,0.00,VWS V14.01,2013-05-21 11:22:00,
2013-05-21 06:27:00,8.6,7.7,28.47,NE,45,0.0,0.0,96,0.00,,---,0.00,VWS V14.01,2013-05-21 11:27:00,
2013-05-21 06:32:00,8.4,7.5,28.47,ENE,68,0.0,0.0,96,0.00,,---,0.00,VWS V14.01,2013-05-21 11:32:00,
2013-05-21 06:37:00,7.9,7.0,28.47,ENE,68,0.0,0.0,96,0.00,,---,0.00,VWS V14.01,2013-05-21 11:37:00,
2013-05-21 06:42:00,8.2,7.3,28.47,ENE,68,0.0,0.0,96,0.00,,---,0.00,VWS V14.01,2013-05-21 11:42:00,
2013-05-21 06:47:00,8.6,7.7,28.47,ENE,68,0.0,0.0,96,0.00,,---,0.00,VWS V14.01,2013-05-21 11:47:00,
2013-05-21 06:52:00,8.4,7.5,28.47,ENE,68,0.0,0.0,96,0.00,,---,0.00,VWS V14.01,2013-05-21 11:52:00,
2013-05-21 06:57:00,8.4,7.5,28.47,ENE,68,0.0,0.0,96,0.00,,---,0.00,VWS V14.01,2013-05-21 11:57:00,
2013-05-21 07:02:00,8.1,7.2,28.47,ENE,68,0.0,0.0,96,0.00,,---,0.00,VWS V14.01,2013-05-21 12:02:00,
2013-05-21 07:07:00,8.2,7.3,28.47,ENE,68,0.0,0.0,96,0.00,,---,0.00,VWS V14.01,2013-05-21 12:07:00,
2013-05-21 07:12:00,8.1,7.2,28.47,ENE,68,0.0,0.0,96,0.00,,---,0.00,VWS V14.01,2013-05-21 12:12:00,
2013-05-21 07:17:00,7.9,7.0,28.47,NNE,22,0.0,0.0,96,0.00,,---,0.00,VWS V14.01,2013-05-21 12:17:00,
2013-05-21 07:22:00,7.7,6.8,28.47,ENE,68,0.0,0.0,96,0.00,,---,0.00,VWS V14.01,2013-05-21 12:22:00,
2013-05-21 07:27:00,7.2,6.3,28.47,ENE,68,0.0,0.0,96,0.00,,---,0.00,VWS V14.01,2013-05-21 12:27:00,
2013-05-21 07:32:00,7.2,6.3,28.47,NNE,22,0.0,0.0,96,0.00,,---,0.00,VWS V14.01,2013-05-21 12:32:00,
2013-05-21 07:37:00,7.3,6.4,28.47,ENE,68,0.0,0.0,96,0.00,,---,0.00,VWS V14.01,2013-05-21 12:37:00,
2013-05-21 07:43:00,7.2,6.3,28.47,East,90,0.0,0.0,96,0.00,,---,0.00,VWS V14.01,2013-05-21 12:43:00,
2013-05-21 07:48:00,7.7,6.8,28.47,ENE,68,0.0,0.0,96,0.00,,---,0.00,VWS V14.01,2013-05-21 12:48:00,
2013-05-21 07:53:00,9.1,8.2,28.47,ENE,68,0.0,0.0,96,0.00,,---,0.00,VWS V14.01,2013-05-21 12:53:00,
2013-05-21 07:58:00,9.5,8.6,28.47,ENE,68,0.0,0.0,96,0.00,,---,0.00,VWS V14.01,2013-05-21 12:58:00,
2013-05-21 08:03:00,10.2,9.3,28.47,ENE,68,0.0,0.0,96,0.00,,---,0.00,VWS V14.01,2013-05-21 13:03:00,
2013-05-21 08:08:00,10.2,9.3,28.47,NNE,22,0.0,0.0,96,0.00,,---,0.00,VWS V14.01,2013-05-21 13:08:00,
2013-05-21 08:13:00,10.0,9.1,28.47,ENE,68,1.1,1.6,96,0.00,,---,0.00,VWS V14.01,2013-05-21 13:13:00,
2013-05-21 08:18:00,10.2,9.3,28.47,ENE,68,0.0,0.0,96,0.00,,---,0.00,VWS V14.01,2013-05-21 13:18:00,
2013-05-21 08:23:00,9.0,8.1,28.47,NE,45,0.0,0.0,96,0.00,,---,0.00,VWS V14.01,2013-05-21 13:23:00,
2013-05-21 08:28:00,8.4,7.5,28.47,ESE,112,0.0,0.0,96,0.00,,---,0.00,VWS V14.01,2013-05-21 13:28:00,
2013-05-21 08:33:00,8.6,7.7,28.47,NNE,22,0.0,0.0,96,0.00,,---,0.00,VWS V14.01,2013-05-21 13:33:00,
2013-05-21 08:38:00,8.6,7.7,28.47,ENE,68,0.0,0.0,96,0.00,,---,0.00,VWS V14.01,2013-05-21 13:38:00,
2013-05-21 08:43:00,8.4,7.5,28.47,ENE,68,1.1,1.6,96,0.00,,---,0.00,VWS V14.01,2013-05-21 13:43:00,
2013-05-21 08:48:00,8.1,7.2,28.47,ENE,68,0.9,2.5,96,0.00,,---,0.00,VWS V14.01,2013-05-21 13:48:00,
2013-05-21 08:53:00,8.1,7.2,28.47,ESE,112,0.0,0.0,96,0.00,,---,0.00,VWS V14.01,2013-05-21 13:53:00,
2013-05-21 08:58:00,7.7,6.8,28.47,NNE,22,0.0,0.0,96,0.00,,---,0.00,VWS V14.01,2013-05-21 13:58:00,
2013-05-21 09:03:00,6.8,5.9,28.47,ENE,68,0.0,0.0,96,0.00,,---,0.00,VWS V14.01,2013-05-21 14:03:00,
2013-05-21 09:08:00,7.0,6.1,28.47,NNE,22,1.6,1.6,96,0.00,,---,0.00,VWS V14.01,2013-05-21 14:08:00,
2013-05-21 09:13:00,7.2,6.3,28.50,ENE,68,0.0,1.6,96,0.00,,---,0.00,VWS V14.01,2013-05-21 14:13:00,
2013-05-21 09:18:00,6.4,5.5,28.50,ENE,68,3.1,3.1,96,0.00,,---,0.00,VWS V14.01,2013-05-21 14:18:00,
2013-05-21 09:23:00,6.3,5.4,28.50,NE,45,0.0,0.9,96,0.00,,---,0.00,VWS V14.01,2013-05-21 14:23:00,
2013-05-21 09:28:00,7.0,6.1,28.50,NNE,22,0.0,0.0,96,0.00,,---,0.00,VWS V14.01,2013-05-21 14:28:00,
2013-05-21 09:33:00,6.3,5.4,28.50,ENE,68,0.0,0.0,96,0.00,,---,0.00,VWS V14.01,2013-05-21 14:33:00,
2013-05-21 09:38:00,5.9,5.0,28.50,ENE,68,0.0,0.0,96,0.00,,---,0.00,VWS V14.01,2013-05-21 14:38:00,
2013-05-21 09:43:00,5.9,5.0,28.50,ENE,68,0.0,0.0,96,0.00,,---,0.00,VWS V14.01,2013-05-21 14:43:00,
2013-05-21 09:48:00,5.9,5.0,28.50,ENE,68,0.0,0.0,96,0.00,,---,0.00,VWS V14.01,2013-05-21 14:48:00,
2013-05-21 09:53:00,6.4,5.5,28.50,NE,45,0.0,0.0,96,0.00,,---,0.00,VWS V14.01,2013-05-21 14:53:00,
2013-05-21 09:58:00,6.8,5.9,28.50,NNE,22,0.0,0.0,96,0.00,,---,0.00,VWS V14.01,2013-05-21 14:58:00,
2013-05-21 10:03:00,6.8,5.9,28.50,ENE,68,1.3,1.3,96,0.00,,---,0.00,VWS V14.01,2013-05-21 15:03:00,
2013-05-21 10:08:00,6.1,5.2,28.50,NNE,22,0.0,0.0,96,0.00,,---,0.00,VWS V14.01,2013-05-21 15:08:00,
2013-05-21 10:13:00,5.9,5.0,28.50,NNE,22,1.3,2.0,96,0.00,,---,0.00,VWS V14.01,2013-05-21 15:13:00,
2013-05-21 10:18:00,5.9,5.0,28.50,ENE,68,0.0,2.2,96,0.00,,---,0.00,VWS V14.01,2013-05-21 15:18:00,
2013-05-21 10:23:00,5.4,4.5,28.50,ENE,68,0.0,0.0,96,0.00,,---,0.00,VWS V14.01,2013-05-21 15:23:00,
2013-05-21 10:28:00,5.5,4.7,28.50,NE,45,0.0,0.0,96,0.00,,---,0.00,VWS V14.01,2013-05-21 15:28:00,
2013-05-21 10:33:00,6.1,5.2,28.50,ENE,68,0.0,0.0,96,0.00,,---,0.00,VWS V14.01,2013-05-21 15:33:00,
2013-05-21 10:38:00,4.6,3.8,28.50,NE,45,0.0,0.0,96,0.00,,---,0.00,VWS V14.01,2013-05-21 15:38:00,
2013-05-21 10:44:00,3.9,3.0,28.50,ENE,68,0.0,0.0,96,0.00,,---,0.00,VWS V14.01,2013-05-21 15:44:00,
2013-05-21 10:49:00,3.9,3.0,28.50,ENE,68,0.0,0.0,96,0.00,,---,0.00,VWS V14.01,2013-05-21 15:49:00,
2013-05-21 10:54:00,2.5,1.6,28.50,ENE,68,0.0,0.0,96,0.00,,---,0.00,VWS V14.01,2013-05-21 15:54:00,
2013-05-21 10:59:00,2.5,1.6,28.50,NE,45,0.0,0.0,96,0.00,,---,0.00,VWS V14.01,2013-05-21 15:59:00,
2013-05-21 11:04:00,0.9,0.0,28.50,NE,45,0.0,0.0,96,0.00,,---,0.00,VWS V14.01,2013-05-21 16:04:00,
2013-05-21 11:09:00,0.0,-0.9,28.50,North,0,0.0,0.0,96,0.00,,---,0.00,VWS V14.01,2013-05-21 16:09:00,
2013-05-21 11:14:00,-2.0,-2.9,28.50,North,0,0.0,0.0,96,0.00,,---,0.00,VWS V14.01,2013-05-21 16:14:00,
2013-05-21 11:19:00,-3.3,-4.1,28.50,NNE,22,0.0,0.0,96,0.00,,---,0.00,VWS V14.01,2013-05-21 16:19:00,
2013-05-21 11:24:00,-4.4,-5.2,28.50,ENE,68,0.0,0.0,96,0.00,,---,0.00,VWS V14.01,2013-05-21 16:24:00,
2013-05-21 11:29:00,-4.0,-4.8,28.50,ENE,68,0.0,0.0,96,0.00,,---,0.00,VWS V14.01,2013-05-21 16:29:00,
2013-05-21 11:34:00,-3.8,-4.7,28.50,ENE,68,0.0,0.0,96,0.00,,---,0.00,VWS V14.01,2013-05-21 16:34:00,
2013-05-21 11:39:00,-4.2,-5.0,28.50,NNE,22,2.2,2.5,96,0.00,,---,0.00,VWS V14.01,2013-05-21 16:39:00,
2013-05-21 11:44:00,-4.5,-5.4,28.50,ENE,68,0.0,0.9,96,0.00,,---,0.00,VWS V14.01,2013-05-21 16:44:00,
2013-05-21 11:49:00,-5.4,-6.3,28.50,NNE,22,1.6,2.0,96,0.00,,---,0.00,VWS V14.01,2013-05-21 16:49:00,
2013-05-21 11:54:00,-6.3,-7.2,28.50,NNE,22,0.0,0.0,96,0.00,,---,0.00,VWS V14.01,2013-05-21 16:54:00,
2013-05-21 11:59:00,-5.1,-5.9,28.50,NE,45,0.0,0.0,96,0.00,,---,0.00,VWS V14.01,2013-05-21 16:59:00,
2013-05-21 12:04:00,-4.2,-5.0,28.50,ENE,68,0.0,0.0,96,0.00,,---,0.00,VWS V14.01,2013-05-21 17:04:00,
2013-05-21 12:09:00,-5.8,-6.6,28.50,NE,45,2.2,2.7,96,0.00,,---,0.00,VWS V14.01,2013-05-21 17:09:00,
2013-05-21 12:14:00,-5.4,-6.3,28.50,NNE,22,0.0,2.0,96,0.00,,---,0.00,VWS V14.01,2013-05-21 17:14:00,
2013-05-21 12:19:00,-7.4,-8.3,28.50,NNE,22,2.2,2.2,96,0.00,,---,0.00,VWS V14.01,2013-05-21 17:19:00,
2013-05-21 12:24:00,-8.9,-9.7,28.52,ENE,68,0.0,2.0,96,0.00,,---,0.00,VWS V14.01,2013-05-21 17:24:00,
2013-05-21 12:29:00,-8.1,-9.0,28.52,ENE,68,0.0,0.0,96,0.00,,---,0.00,VWS V14.01,2013-05-21 17:29:00,
2013-05-21 12:35:00,-8.9,-9.7,28.52,NNE,22,0.0,0.0,96,0.00,,---,0.00,VWS V14.01,2013-05-21 17:35:00,
2013-05-21 12:40:00,-10.5,-11.3,28.52,East,90,0.0,0.0,96,0.00,,---,0.00,VWS V14.01,2013-05-21 17:40:00,
2013-05-21 12:45:00,-9.0,-9.9,28.52,NE,45,0.0,0.0,96,0.00,,---,0.00,VWS V14.01,2013-05-21 17:45:00,
2013-05-21 12:50:00,-9.4,-10.2,28.52,ENE,68,0.0,2.2,96,0.00,,---,0.00,VWS V14.01,2013-05-21 17:50:00,
2013-05-21 12:55:00,-8.7,-9.5,28.52,ENE,68,0.0,0.0,96,0.00,,---,0.00,VWS V14.01,2013-05-21 17:55:00,
2013-05-21 13:00:00,-8.3,-9.1,28.52,ENE,68,0.0,0.0,96,0.00,,---,0.00,VWS V14.01,2013-05-21 18:00:00,
2013-05-21 13:05:00,-8.0,-8.8,28.52,ENE,68,0.0,0.0,96,0.00,,---,0.00,VWS V14.01,2013-05-21 18:05:00,
2013-05-21 13:10:00,-7.4,-8.3,28.52,ENE,68,0.0,0.0,96,0.00,,---,0.00,VWS V14.01,2013-05-21 18:10:00,
2013-05-21 13:15:00,-6.9,-7.7,28.52,ENE,68,0.0,0.0,96,0.00,,---,0.00,VWS V14.01,2013-05-21 18:15:00,
2013-05-21 13:20:00,-5.6,-6.5,28.52,ENE,68,0.0,0.0,96,0.00,,---,0.00,VWS V14.01,2013-05-21 18:20:00,
2013-05-21 13:25:00,-4.4,-5.2,28.52,ENE,68,0.0,0.0,96,0.00,,---,0.00,VWS V14.01,2013-05-21 18:25:00,
2013-05-21 13:30:00,-3.8,-4.7,28.52,ENE,68,0.0,0.0,96,0.00,,---,0.00,VWS V14.01,2013-05-21 18:30:00,
2013-05-21 13:35:00,-2.9,-3.8,28.52,ENE,68,0.0,0.0,96,0.00,,---,0.00,VWS V14.01,2013-05-21 18:35:00,
2013-05-21 13:40:00,-2.9,-3.8,28.52,ENE,68,0.0,0.0,96,0.00,,---,0.00,VWS V14.01,2013-05-21 18:40:00,
2013-05-21 13:45:00,-2.7,-3.6,28.52,ENE,68,0.0,0.0,96,0.00,,---,0.00,VWS V14.01,2013-05-21 18:45:00,
2013-05-21 13:50:00,-2.6,-3.4,28.52,ENE,68,0.0,0.0,96,0.00,,---,0.00,VWS V14.01,2013-05-21 18:50:00,
2013-05-21 13:55:00,-2.6,-3.4,28.52,ENE,68,0.0,0.0,96,0.00,,---,0.00,VWS V14.01,2013-05-21 18:55:00,
2013-05-21 14:00:00,-2.7,-3.6,28.52,ENE,68,0.0,0.0,96,0.00,,---,0.00,VWS V14.01,2013-05-21 19:00:00,
2013-05-21 14:05:00,-1.8,-2.7,28.52,ENE,68,0.0,0.0,96,0.00,,---,0.00,VWS V14.01,2013-05-21 19:05:00,
2013-05-21 14:10:00,-0.9,-1.8,28.52,ENE,68,0.0,0.0,96,0.00,,---,0.00,VWS V14.01,2013-05-21 19:10:00,
2013-05-21 14:15:00,-2.2,-3.1,28.52,ENE,68,0.0,0.0,96,0.00,,---,0.00,VWS V14.01,2013-05-21 19:15:00,
2013-05-21 14:20:00,-2.9,-3.8,28.52,NNE,22,0.0,0.0,96,0.00,,---,0.00,VWS V14.01,2013-05-21 19:20:00,
2013-05-21 14:25:00,-2.9,-3.8,28.55,NNE,22,0.0,0.0,96,0.00,,---,0.00,VWS V14.01,2013-05-21 19:25:00,
2013-05-21 14:30:00,-4.2,-5.0,28.55,ENE,68,0.0,0.0,96,0.00,,---,0.00,VWS V14.01,2013-05-21 19:30:00,
2013-05-21 14:35:00,-5.1,-5.9,28.55,ENE,68,0.0,0.0,96,0.00,,---,0.00,VWS V14.01,2013-05-21 19:35:00,
2013-05-21 14:40:00,-6.2,-7.0,28.55,ENE,68,0.0,0.0,96,0.00,,---,0.00,VWS V14.01,2013-05-21 19:40:00,
2013-05-21 14:45:00,-8.0,-8.8,28.55,ENE,68,0.0,0.0,96,0.00,,---,0.00,VWS V14.01,2013-05-21 19:45:00,
2013-05-21 14:50:00,-7.4,-8.3,28.55,ENE,68,0.0,0.9,96,0.00,,---,0.00,VWS V14.01,2013-05-21 19:50:00,
2013-05-21 14:56:00,-6.7,-7.5,28.55,ENE,68,0.0,0.0,96,0.00,,---,0.00,VWS V14.01,2013-05-21 19:56:00,
2013-05-21 15:01:00,-5.3,-6.1,28.55,ENE,68,0.0,0.0,96,0.00,,---,0.00,VWS V14.01,2013-05-21 20:01:00,
2013-05-21 15:06:00,-6.5,-7.4,28.55,ENE,68,0.0,0.0,96,0.00,,---,0.00,VWS V14.01,2013-05-21 20:06:00,
2013-05-21 15:11:00,-5.3,-6.1,28.55,ESE,112,0.0,0.0,96,0.00,,---,0.00,VWS V14.01,2013-05-21 20:11:00,
2013-05-21 15:16:00,-6.2,-7.0,28.55,ENE,68,0.0,0.0,96,0.00,,---,0.00,VWS V14.01,2013-05-21 20:16:00,
2013-05-21 15:21:00,-5.6,-6.5,28.55,NE,45,0.0,0.0,96,0.00,,---,0.00,VWS V14.01,2013-05-21 20:21:00,
2013-05-21 15:26:00,-7.4,-8.3,28.55,ENE,68,0.0,0.0,96,0.00,,---,0.00,VWS V14.01,2013-05-21 20:26:00,
2013-05-21 15:31:00,-8.9,-9.7,28.55,NNE,22,0.0,0.0,96,0.00,,---,0.00,VWS V14.01,2013-05-21 20:31:00,
2013-05-21 15:36:00,-8.5,-9.3,28.55,ENE,68,0.0,0.0,96,0.00,,---,0.00,VWS V14.01,2013-05-21 20:36:00,
2013-05-21 15:41:00,-6.2,-7.0,28.55,ENE,68,0.0,0.0,96,0.00,,---,0.00,VWS V14.01,2013-05-21 20:41:00,
2013-05-21 15:46:00,-5.1,-5.9,28.55,ENE,68,0.0,0.0,96,0.00,,---,0.00,VWS V14.01,2013-05-21 20:46:00,
2013-05-21 15:51:00,-6.3,-7.2,28.55,ENE,68,0.0,0.0,96,0.00,,---,0.00,VWS V14.01,2013-05-21 20:51:00,
2013-05-21 15:57:00,-9.6,-10.4,28.55,ENE,68,1.3,1.3,96,0.00,,---,0.00,VWS V14.01,2013-05-21 20:57:00,
2013-05-21 16:02:00,-10.5,-11.3,28.55,ENE,68,1.6,2.5,96,0.00,,---,0.00,VWS V14.01,2013-05-21 21:02:00,
2013-05-21 16:07:00,-9.9,-10.8,28.55,ENE,68,0.0,0.0,96,0.00,,---,0.00,VWS V14.01,2013-05-21 21:07:00,
2013-05-21 16:12:00,-9.8,-10.6,28.55,ENE,68,0.0,0.0,96,0.00,,---,0.00,VWS V14.01,2013-05-21 21:12:00,
2013-05-21 16:17:00,-11.6,-12.4,28.55,ENE,68,0.0,0.0,96,0.00,,---,0.00,VWS V14.01,2013-05-21 21:17:00,
2013-05-21 16:22:00,-11.2,-12.0,28.55,ENE,68,0.0,0.0,96,0.00,,---,0.00,VWS V14.01,2013-05-21 21:22:00,
2013-05-21 16:27:00,-11.9,-12.7,28.58,ENE,68,2.2,2.2,96,0.00,,---,0.00,VWS V14.01,2013-05-21 21:27:00,
2013-05-21 16:32:00,-11.7,-12.6,28.58,NNE,22,1.6,1.6,96,0.00,,---,0.00,VWS V14.01,2013-05-21 21:32:00,
2013-05-21 16:37:00,-11.2,-12.0,28.58,ENE,68,0.0,0.0,96,0.00,,---,0.00,VWS V14.01,2013-05-21 21:37:00,
2013-05-21 16:42:00,-10.3,-11.1,28.55,ENE,68,0.0,1.6,96,0.00,,---,0.00,VWS V14.01,2013-05-21 21:42:00,
2013-05-21 16:47:00,-10.3,-11.1,28.55,ENE,68,0.0,0.0,96,0.00,,---,0.00,VWS V14.01,2013-05-21 21:47:00,
2013-05-21 16:52:00,-10.5,-11.3,28.55,NNW,338,1.1,1.1,96,0.00,,---,0.00,VWS V14.01,2013-05-21 21:52:00,
2013-05-21 16:57:00,-10.3,-11.1,28.58,NNE,22,0.0,0.0,96,0.00,,---,0.00,VWS V14.01,2013-05-21 21:57:00,
2013-05-21 17:02:00,-10.3,-11.1,28.58,North,0,0.0,1.6,96,0.00,,---,0.00,VWS V14.01,2013-05-21 22:02:00,
2013-05-21 17:07:00,-11.2,-12.0,28.58,SW,225,0.0,0.0,96,0.00,,---,0.00,VWS V14.01,2013-05-21 22:07:00,
2013-05-21 17:12:00,-10.8,-11.7,28.58,West,270,0.0,1.3,96,0.00,,---,0.00,VWS V14.01,2013-05-21 22:12:00,
2013-05-21 17:17:00,-11.6,-12.4,28.58,SSE,158,0.0,0.0,96,0.00,,---,0.00,VWS V14.01,2013-05-21 22:17:00,
2013-05-21 17:22:00,-12.1,-12.9,28.58,SE,135,0.0,1.6,96,0.00,,---,0.00,VWS V14.01,2013-05-21 22:22:00,
2013-05-21 17:27:00,-11.4,-12.2,28.58,South,180,0.0,2.0,96,0.00,,---,0.00,VWS V14.01,2013-05-21 22:27:00,
2013-05-21 17:32:00,-11.4,-12.2,28.58,SSE,158,0.0,0.0,96,0.00,,---,0.00,VWS V14.01,2013-05-21 22:32:00,
2013-05-21 17:37:00,-10.5,-11.3,28.58,SSE,158,1.6,2.0,96,0.00,,---,0.00,VWS V14.01,2013-05-21 22:37:00,
2013-05-21 17:42:00,-9.6,-10.4,28.58,ENE,68,0.0,0.0,96,0.00,,---,0.00,VWS V14.01,2013-05-21 22:42:00,
2013-05-21 17:47:00,-9.0,-9.9,28.58,East,90,0.0,0.0,96,0.00,,---,0.00,VWS V14.01,2013-05-21 22:47:00,
2013-05-21 17:52:00,-9.0,-9.9,28.58,WNW,292,0.0,1.3,96,0.00,,---,0.00,VWS V14.01,2013-05-21 22:52:00,
2013-05-21 17:57:00,-8.7,-9.5,28.58,North,0,0.0,2.0,96,0.00,,---,0.00,VWS V14.01,2013-05-21 22:57:00,
2013-05-21 18:02:00,-8.9,-9.7,28.58,ENE,68,1.3,1.3,96,0.00,,---,0.00,VWS V14.01,2013-05-21 23:02:00,
2013-05-21 18:07:00,-9.6,-10.4,28.58,NE,45,0.0,2.9,96,0.00,,---,0.00,VWS V14.01,2013-05-21 23:07:00,
2013-05-21 18:12:00,-11.0,-11.8,28.58,NNW,338,0.0,1.1,96,0.00,,---,0.00,VWS V14.01,2013-05-21 23:12:00,
2013-05-21 18:17:00,-11.9,-12.7,28.58,NNW,338,2.0,2.0,96,0.00,,---,0.00,VWS V14.01,2013-05-21 23:17:00,
2013-05-21 18:22:00,-11.9,-12.7,28.58,NNE,22,0.0,0.0,96,0.00,,---,0.00,VWS V14.01,2013-05-21 23:22:00,
2013-05-21 18:27:00,-11.9,-12.7,28.58,SSE,158,0.0,1.1,96,0.00,,---,0.00,VWS V14.01,2013-05-21 23:27:00,
2013-05-21 18:32:00,-12.3,-13.1,28.58,SSW,202,0.0,1.3,96,0.00,,---,0.00,VWS V14.01,2013-05-21 23:32:00,
2013-05-21 18:37:00,-11.9,-12.7,28.58,SSE,158,0.0,1.3,96,0.00,,---,0.00,VWS V14.01,2013-05-21 23:37:00,
2013-05-21 18:42:00,-12.1,-12.9,28.58,NNW,338,0.0,1.1,96,0.00,,---,0.00,VWS V14.01,2013-05-21 23:42:00,
2013-05-21 18:47:00,-12.6,-13.5,28.58,SW,225,0.0,0.0,96,0.00,,---,0.00,VWS V14.01,2013-05-21 23:47:00,
2013-05-21 18:52:00,-12.6,-13.5,28.58,NE,45,0.9,2.0,96,0.00,,---,0.00,VWS V14.01,2013-05-21 23:52:00,
2013-05-21 18:57:00,-12.6,-13.5,28.58,SSE,158,1.1,1.1,96,0.00,,---,0.00,VWS V14.01,2013-05-21 23:57:00,
2013-05-21 19:02:00,-12.3,-13.1,28.58,North,0,2.2,2.2,96,0.00,,---,0.00,VWS V14.01,2013-05-22 00:02:00,
2013-05-21 19:07:00,-11.6,-12.4,28.58,NNW,338,1.3,1.3,96,0.00,,---,0.00,VWS V14.01,2013-05-22 00:07:00,
2013-05-21 19:12:00,-11.0,-11.8,28.58,ENE,68,0.0,2.0,96,0.00,,---,0.00,VWS V14.01,2013-05-22 00:12:00,
2013-05-21 19:17:00,-10.3,-11.1,28.58,North,0,0.0,0.9,96,0.00,,---,0.00,VWS V14.01,2013-05-22 00:17:00,
2013-05-21 19:22:00,-10.3,-11.1,28.58,WSW,248,1.3,1.3,96,0.00,,---,0.00,VWS V14.01,2013-05-22 00:22:00,
2013-05-21 19:27:00,-10.1,-10.9,28.58,NNW,338,2.2,2.2,96,0.00,,---,0.00,VWS V14.01,2013-05-22 00:27:00,
2013-05-21 19:32:00,-10.1,-10.9,28.58,East,90,1.3,2.9,96,0.00,,---,0.00,VWS V14.01,2013-05-22 00:32:00,
2013-05-21 19:37:00,-9.8,-10.6,28.58,SSE,158,1.3,2.7,96,0.00,,---,0.00,VWS V14.01,2013-05-22 00:37:00,
2013-05-21 19:42:00,-9.4,-10.2,28.58,South,180,0.0,1.3,96,0.00,,---,0.00,VWS V14.01,2013-05-22 00:42:00,
2013-05-21 19:47:00,-8.9,-9.7,28.58,North,0,0.0,0.9,96,0.00,,---,0.00,VWS V14.01,2013-05-22 00:47:00,
2013-05-21 19:53:00,-8.1,-9.0,28.58,ESE,112,0.0,0.0,96,0.00,,---,0.00,VWS V14.01,2013-05-22 00:53:00,
2013-05-21 19:58:00,-7.8,-8.6,28.61,NNE,22,3.1,3.1,96,0.00,,---,0.00,VWS V14.01,2013-05-22 00:58:00,
2013-05-21 20:03:00,-8.0,-8.8,28.61,ENE,68,0.0,2.7,96,0.00,,---,0.00,VWS V14.01,2013-05-22 01:03:00,
2013-05-21 20:08:00,-8.3,-9.1,28.61,North,0,0.9,2.5,96,0.00,,---,0.00,VWS V14.01,2013-05-22 01:08:00,
2013-05-21 20:13:00,-8.7,-9.5,28.61,ENE,68,0.0,0.0,96,0.00,,---,0.00,VWS V14.01,2013-05-22 01:13:00,
2013-05-21 20:18:00,-8.7,-9.5,28.61,ENE,68,0.0,0.0,96,0.00,,---,0.00,VWS V14.01,2013-05-22 01:18:00,
2013-05-21 20:23:00,-8.1,-9.0,28.61,North,0,0.0,0.0,96,0.00,,---,0.00,VWS V14.01,2013-05-22 01:23:00,
2013-05-21 20:28:00,-8.3,-9.1,28.61,ENE,68,0.0,0.0,96,0.00,,---,0.00,VWS V14.01,2013-05-22 01:28:00,
2013-05-21 20:33:00,-8.1,-9.0,28.61,NNE,22,0.0,0.0,96,0.00,,---,0.00,VWS V14.01,2013-05-22 01:33:00,
2013-05-21 20:38:00,-8.0,-8.8,28.61,ENE,68,0.0,0.0,96,0.00,,---,0.00,VWS V14.01,2013-05-22 01:38:00,
2013-05-21 20:43:00,-8.0,-8.8,28.61,ENE,68,0.0,0.0,96,0.00,,---,0.00,VWS V14.01,2013-05-22 01:43:00,
2013-05-21 20:48:00,-7.8,-8.6,28.61,ENE,68,0.0,0.0,96,0.00,,---,0.00,VWS V14.01,2013-05-22 01:48:00,
2013-05-21 20:53:00,-7.2,-8.1,28.61,ENE,68,0.0,0.0,96,0.00,,---,0.00,VWS V14.01,2013-05-22 01:53:00,
2013-05-21 20:58:00,-7.6,-8.4,28.61,ENE,68,0.0,0.0,96,0.00,,---,0.00,VWS V14.01,2013-05-22 01:58:00,
2013-05-21 21:03:00,-7.4,-8.3,28.61,NE,45,0.0,0.0,96,0.00,,---,0.00,VWS V14.01,2013-05-22 02:03:00,
2013-05-21 21:08:00,-7.1,-7.9,28.61,NNE,22,0.0,2.2,96,0.00,,---,0.00,VWS V14.01,2013-05-22 02:08:00,
2013-05-21 21:13:00,-6.9,-7.7,28.61,North,0,0.0,2.5,96,0.00,,---,0.00,VWS V14.01,2013-05-22 02:13:00,
2013-05-21 21:18:00,-6.5,-7.4,28.61,North,0,0.9,2.0,96,0.00,,---,0.00,VWS V14.01,2013-05-22 02:18:00,
2013-05-21 21:23:00,-6.3,-7.2,28.61,ENE,68,2.2,2.2,96,0.00,,---,0.00,VWS V14.01,2013-05-22 02:23:00,
2013-05-21 21:28:00,-5.4,-6.3,28.61,North,0,0.0,0.0,96,0.00,,---,0.00,VWS V14.01,2013-05-22 02:28:00,
2013-05-21 21:33:00,-5.1,-5.9,28.61,ENE,68,0.0,0.0,96,0.00,,---,0.00,VWS V14.01,2013-05-22 02:33:00,
2013-05-21 21:38:00,-5.6,-6.5,28.61,ENE,68,0.0,0.0,96,0.00,,---,0.00,VWS V14.01,2013-05-22 02:38:00,
2013-05-21 21:43:00,-5.6,-6.5,28.61,ESE,112,0.0,0.0,96,0.00,,---,0.00,VWS V14.01,2013-05-22 02:43:00,
2013-05-21 21:48:00,-5.1,-5.9,28.61,NNE,22,0.0,0.0,96,0.00,,---,0.00,VWS V14.01,2013-05-22 02:48:00,
2013-05-21 21:53:00,-5.4,-6.3,28.61,ENE,68,0.0,0.0,96,0.00,,---,0.00,VWS V14.01,2013-05-22 02:53:00,
2013-05-21 21:58:00,-4.9,-5.8,28.64,NNE,22,2.9,3.4,96,0.00,,---,0.00,VWS V14.01,2013-05-22 02:58:00,
2013-05-21 22:03:00,-4.7,-5.6,28.64,ENE,68,2.5,2.5,96,0.00,,---,0.00,VWS V14.01,2013-05-22 03:03:00,
2013-05-21 22:08:00,-4.4,-5.2,28.64,NE,45,0.0,0.0,96,0.00,,---,0.00,VWS V14.01,2013-05-22 03:08:00,
2013-05-21 22:13:00,-4.2,-5.0,28.64,ENE,68,2.0,3.1,96,0.00,,---,0.00,VWS V14.01,2013-05-22 03:13:00,
2013-05-21 22:18:00,-3.8,-4.7,28.64,NE,45,0.0,0.0,96,0.00,,---,0.00,VWS V14.01,2013-05-22 03:18:00,
2013-05-21 22:24:00,-3.5,-4.3,28.64,ENE,68,0.0,0.0,96,0.00,,---,0.00,VWS V14.01,2013-05-22 03:24:00,
2013-05-21 22:29:00,-3.5,-4.3,28.64,ENE,68,0.0,0.9,96,0.00,,---,0.00,VWS V14.01,2013-05-22 03:29:00,
2013-05-21 22:34:00,-2.9,-3.8,28.64,ENE,68,0.0,1.3,96,0.00,,---,0.00,VWS V14.01,2013-05-22 03:34:00,
2013-05-21 22:39:00,-2.9,-3.8,28.64,NNE,22,0.0,0.0,96,0.00,,---,0.00,VWS V14.01,2013-05-22 03:39:00,
2013-05-21 22:44:00,-3.1,-4.0,28.64,NNE,22,1.1,1.6,96,0.00,,---,0.00,VWS V14.01,2013-05-22 03:44:00,
2013-05-21 22:49:00,-3.1,-4.0,28.64,ENE,68,0.0,0.0,96,0.00,,---,0.00,VWS V14.01,2013-05-22 03:49:00,
2013-05-21 22:54:00,-3.1,-4.0,28.64,NNE,22,0.0,0.0,96,0.00,,---,0.00,VWS V14.01,2013-05-22 03:54:00,
2013-05-21 22:59:00,-2.7,-3.6,28.64,North,0,0.0,0.0,96,0.00,,---,0.00,VWS V14.01,2013-05-22 03:59:00,
2013-05-21 23:01:00,-2.9,-3.8,28.64,NNE,22,0.0,0.0,96,0.00,,---,0.00,VWS V14.01,2013-05-22 04:01:00,
2013-05-21 23:04:00,-3.5,-4.3,28.64,NNE,22,0.0,0.0,96,0.00,,---,0.00,VWS V14.01,2013-05-22 04:04:00,
2013-05-21 23:05:00,-3.6,-4.5,28.64,NNE,22,0.0,0.0,96,0.00,,---,0.00,VWS V14.01,2013-05-22 04:05:00,
2013-05-21 23:10:00,-4.0,-4.8,28.61,NNE,22,0.0,0.0,96,0.00,,---,0.00,VWS V14.01,2013-05-22 04:10:00,
2013-05-21 23:15:00,-3.8,-4.7,28.61,NNE,22,0.0,0.0,96,0.00,,---,0.00,VWS V14.01,2013-05-22 04:15:00,
2013-05-21 23:20:00,-3.5,-4.3,28.61,NNE,22,0.0,0.0,96,0.00,,---,0.00,VWS V14.01,2013-05-22 04:20:00,
2013-05-21 23:25:00,-2.7,-3.6,28.64,ESE,112,0.0,0.0,96,0.00,,---,0.00,VWS V14.01,2013-05-22 04:25:00,
2013-05-21 23:30:00,-3.1,-4.0,28.64,NNE,22,0.0,0.0,96,0.00,,---,0.00,VWS V14.01,2013-05-22 04:30:00,
2013-05-21 23:35:00,-3.5,-4.3,28.64,ENE,68,0.0,0.0,96,0.00,,---,0.00,VWS V14.01,2013-05-22 04:35:00,
2013-05-21 23:40:00,-3.6,-4.5,28.64,NE,45,0.0,0.0,96,0.00,,---,0.00,VWS V14.01,2013-05-22 04:40:00,
2013-05-21 23:45:00,-3.5,-4.3,28.64,North,0,0.0,0.0,96,0.00,,---,0.00,VWS V14.01,2013-05-22 04:45:00,
2013-05-21 23:50:00,-3.1,-4.0,28.64,NE,45,0.0,0.0,96,0.00,,---,0.00,VWS V14.01,2013-05-22 04:50:00,
2013-05-21 23:55:00,-2.9,-3.8,28.64,ENE,68,0.0,0.0,96,0.00,,---,0.00,VWS V14.01,2013-05-22 04:55:00,